Ana Sayfa
METAR-TAF:

METAR-TAF

Havaalanları :

McGregor Executive Airport

Waco, Teksas, Amerika Birleşik Devletleri

Enlem: 31-29N, Boylam: 097-19W, yükseklik: 180 m

Güncel hava durumu gözlemi

Rapor saat 20:56 UTC de 55 dakika önce yapıldı.
Rüzgar güney/güneydoğudan 19 kt ve 23 kt'a kadar ani rüzgarlar
Sıcaklık 32°C
Nem 52%
Basınç 1015 hPa
Görüş mesafesi: 16.1 km
4700 ft yükseklikte parçalı bulutlu
6000 ft yükseklikte parçalı çok bulutlu

METAR: KPWG 242056Z AUTO 16019G23KT 10SM SCT047 BKN060 32/21 A2998 RMK AO2 SLP153 T03170206 58018

Saat: 16:51 (21:51 UTC)


TAF: eksik

4.000'den fazla havaalanı için hava durumu gözlemleri ve tahminleri (METAR ve TAF raporları).

Kullanılabilir istasyonlar harita üzerinde sarı ve kırmızı noktalarla gösterilir.

İstasyonun adını görmek için fareyi noktanın üzerinde gezdirin.

Sonrasında hava gözlem ve tahminlerini görmek için tıklayın.

Haritayı değiştirmek için: yaklaştırmak için siyah artı işaretli yeşil düğmeye ve uzaklaştırmak için de eksi işaretli düğmeye hızla tıklayın; bitişik haritalar için yeşil okları kullanın.


METAR-TAF: